sensor_id;sensor_type;location;lat;lon;timestamp;temperature;humidity
15676;DHT22;7938;47.666;9.434;2023-05-09T04:01:06;13.40;99.90
15676;DHT22;7938;47.666;9.434;2023-05-09T04:03:33;13.40;99.90
15676;DHT22;7938;47.666;9.434;2023-05-09T04:06:02;13.30;99.90
15676;DHT22;7938;47.666;9.434;2023-05-09T04:08:29;13.20;99.90
15676;DHT22;7938;47.666;9.434;2023-05-09T04:10:56;13.20;99.90
15676;DHT22;7938;47.666;9.434;2023-05-09T04:13:23;13.10;99.90
15676;DHT22;7938;47.666;9.434;2023-05-09T04:15:50;13.00;99.90
15676;DHT22;7938;47.666;9.434;2023-05-09T04:18:18;13.00;99.90
15676;DHT22;7938;47.666;9.434;2023-05-09T04:20:45;13.00;99.90
15676;DHT22;7938;47.666;9.434;2023-05-09T04:23:12;13.00;99.90
15676;DHT22;7938;47.666;9.434;2023-05-09T04:25:38;13.00;99.90
15676;DHT22;7938;47.666;9.434;2023-05-09T04:28:05;13.10;99.90
15676;DHT22;7938;47.666;9.434;2023-05-09T04:30:32;13.40;99.90
15676;DHT22;7938;47.666;9.434;2023-05-09T04:32:59;13.40;99.90
15676;DHT22;7938;47.666;9.434;2023-05-09T04:35:28;13.40;99.90
15676;DHT22;7938;47.666;9.434;2023-05-09T04:37:55;13.50;99.90
15676;DHT22;7938;47.666;9.434;2023-05-09T04:40:22;13.60;99.90
15676;DHT22;7938;47.666;9.434;2023-05-09T04:42:49;13.60;99.90
15676;DHT22;7938;47.666;9.434;2023-05-09T04:45:16;13.60;99.90
15676;DHT22;7938;47.666;9.434;2023-05-09T04:47:43;13.70;99.90
15676;DHT22;7938;47.666;9.434;2023-05-09T04:50:10;13.70;99.90
15676;DHT22;7938;47.666;9.434;2023-05-09T04:52:39;13.80;99.90
15676;DHT22;7938;47.666;9.434;2023-05-09T04:55:06;13.80;99.90
15676;DHT22;7938;47.666;9.434;2023-05-09T04:57:33;13.80;99.90
15676;DHT22;7938;47.666;9.434;2023-05-09T05:00:00;13.80;99.90
15676;DHT22;7938;47.666;9.434;2023-05-09T05:02:27;13.90;99.90
15676;DHT22;7938;47.666;9.434;2023-05-09T05:04:54;14.00;99.90
15676;DHT22;7938;47.666;9.434;2023-05-09T05:07:20;14.10;99.90
15676;DHT22;7938;47.666;9.434;2023-05-09T05:09:49;14.10;99.90
15676;DHT22;7938;47.666;9.434;2023-05-09T05:12:15;14.10;99.90
15676;DHT22;7938;47.666;9.434;2023-05-09T05:14:42;14.10;99.90
15676;DHT22;7938;47.666;9.434;2023-05-09T05:17:09;14.20;99.90
15676;DHT22;7938;47.666;9.434;2023-05-09T05:19:36;14.20;99.90
15676;DHT22;7938;47.666;9.434;2023-05-09T05:22:03;14.10;99.90
15676;DHT22;7938;47.666;9.434;2023-05-09T05:24:30;14.20;99.90
15676;DHT22;7938;47.666;9.434;2023-05-09T05:26:58;14.30;99.90
15676;DHT22;7938;47.666;9.434;2023-05-09T05:29:25;14.30;99.90
15676;DHT22;7938;47.666;9.434;2023-05-09T05:31:52;14.40;99.90
15676;DHT22;7938;47.666;9.434;2023-05-09T05:34:18;14.40;99.90
15676;DHT22;7938;47.666;9.434;2023-05-09T05:36:45;14.40;99.90
15676;DHT22;7938;47.666;9.434;2023-05-09T05:39:12;14.50;99.90
15676;DHT22;7938;47.666;9.434;2023-05-09T05:41:39;14.60;99.90
15676;DHT22;7938;47.666;9.434;2023-05-09T05:44:07;14.50;99.90
15676;DHT22;7938;47.666;9.434;2023-05-09T05:46:34;14.70;99.90
15676;DHT22;7938;47.666;9.434;2023-05-09T05:49:01;14.70;99.90
15676;DHT22;7938;47.666;9.434;2023-05-09T05:51:28;14.90;99.90
15676;DHT22;7938;47.666;9.434;2023-05-09T05:53:55;14.90;99.90
15676;DHT22;7938;47.666;9.434;2023-05-09T05:56:22;15.00;99.90
15676;DHT22;7938;47.666;9.434;2023-05-09T05:58:49;15.00;99.90
15676;DHT22;7938;47.666;9.434;2023-05-09T06:01:17;15.00;99.90
15676;DHT22;7938;47.666;9.434;2023-05-09T06:03:44;15.00;99.90
15676;DHT22;7938;47.666;9.434;2023-05-09T06:06:11;15.10;99.90
15676;DHT22;7938;47.666;9.434;2023-05-09T06:08:37;15.00;99.90
15676;DHT22;7938;47.666;9.434;2023-05-09T06:11:04;15.30;99.90
15676;DHT22;7938;47.666;9.434;2023-05-09T06:13:32;15.40;99.90
15676;DHT22;7938;47.666;9.434;2023-05-09T06:15:58;15.40;99.90
15676;DHT22;7938;47.666;9.434;2023-05-09T06:18:27;15.50;99.90
15676;DHT22;7938;47.666;9.434;2023-05-09T06:20:54;15.60;99.90
15676;DHT22;7938;47.666;9.434;2023-05-09T06:23:21;15.60;99.90
15676;DHT22;7938;47.666;9.434;2023-05-09T06:25:48;15.60;99.90
15676;DHT22;7938;47.666;9.434;2023-05-09T06:28:14;15.70;99.90
15676;DHT22;7938;47.666;9.434;2023-05-09T06:30:41;16.00;99.90
15676;DHT22;7938;47.666;9.434;2023-05-09T06:33:08;16.10;99.90
15676;DHT22;7938;47.666;9.434;2023-05-09T06:35:36;16.40;99.90
15676;DHT22;7938;47.666;9.434;2023-05-09T06:38:03;16.30;99.90
15676;DHT22;7938;47.666;9.434;2023-05-09T06:40:31;16.60;99.90
15676;DHT22;7938;47.666;9.434;2023-05-09T06:42:58;16.60;99.90
15676;DHT22;7938;47.666;9.434;2023-05-09T06:45:25;16.70;99.90
15676;DHT22;7938;47.666;9.434;2023-05-09T06:47:52;17.10;99.90
15676;DHT22;7938;47.666;9.434;2023-05-09T06:50:19;16.90;99.90
15676;DHT22;7938;47.666;9.434;2023-05-09T06:52:47;16.80;99.90
15676;DHT22;7938;47.666;9.434;2023-05-09T06:55:14;16.60;99.90
15676;DHT22;7938;47.666;9.434;2023-05-09T06:57:41;16.50;99.90
15676;DHT22;7938;47.666;9.434;2023-05-09T07:00:09;16.60;99.90
15676;DHT22;7938;47.666;9.434;2023-05-09T07:02:36;16.60;99.90
15676;DHT22;7938;47.666;9.434;2023-05-09T07:05:07;16.80;99.90
15676;DHT22;7938;47.666;9.434;2023-05-09T07:07:33;16.90;99.90
15676;DHT22;7938;47.666;9.434;2023-05-09T07:10:02;17.10;99.90
15676;DHT22;7938;47.666;9.434;2023-05-09T07:12:30;17.30;99.90
15676;DHT22;7938;47.666;9.434;2023-05-09T07:14:57;17.20;99.90
15676;DHT22;7938;47.666;9.434;2023-05-09T07:17:24;17.40;99.90
15676;DHT22;7938;47.666;9.434;2023-05-09T07:19:51;17.40;99.90
15676;DHT22;7938;47.666;9.434;2023-05-09T07:22:18;17.50;99.90
15676;DHT22;7938;47.666;9.434;2023-05-09T07:24:44;17.40;99.90
15676;DHT22;7938;47.666;9.434;2023-05-09T07:27:13;17.60;99.90
15676;DHT22;7938;47.666;9.434;2023-05-09T07:29:40;17.50;99.90
15676;DHT22;7938;47.666;9.434;2023-05-09T07:32:07;17.80;99.90
15676;DHT22;7938;47.666;9.434;2023-05-09T07:34:34;17.30;99.90
15676;DHT22;7938;47.666;9.434;2023-05-09T07:37:01;17.20;99.90
15676;DHT22;7938;47.666;9.434;2023-05-09T07:39:28;16.90;99.90
15676;DHT22;7938;47.666;9.434;2023-05-09T07:41:55;16.80;99.90
15676;DHT22;7938;47.666;9.434;2023-05-09T07:44:23;16.80;99.90
15676;DHT22;7938;47.666;9.434;2023-05-09T07:46:50;16.70;99.90
15676;DHT22;7938;47.666;9.434;2023-05-09T07:49:19;16.90;99.90
15676;DHT22;7938;47.666;9.434;2023-05-09T07:51:46;16.90;99.90
15676;DHT22;7938;47.666;9.434;2023-05-09T07:54:13;17.20;99.90
15676;DHT22;7938;47.666;9.434;2023-05-09T07:56:40;17.20;99.90
15676;DHT22;7938;47.666;9.434;2023-05-09T07:59:07;17.20;99.90
15676;DHT22;7938;47.666;9.434;2023-05-09T08:01:35;17.50;99.90
15676;DHT22;7938;47.666;9.434;2023-05-09T08:04:02;17.30;99.90
15676;DHT22;7938;47.666;9.434;2023-05-09T08:06:31;17.40;99.90
15676;DHT22;7938;47.666;9.434;2023-05-09T08:08:58;17.40;99.90
15676;DHT22;7938;47.666;9.434;2023-05-09T08:11:24;17.40;99.90
15676;DHT22;7938;47.666;9.434;2023-05-09T08:13:52;17.60;99.90
15676;DHT22;7938;47.666;9.434;2023-05-09T08:16:19;18.10;99.90
15676;DHT22;7938;47.666;9.434;2023-05-09T08:18:47;17.50;99.90
15676;DHT22;7938;47.666;9.434;2023-05-09T08:21:14;17.80;99.90
15676;DHT22;7938;47.666;9.434;2023-05-09T08:23:41;17.90;99.90
15676;DHT22;7938;47.666;9.434;2023-05-09T08:26:08;18.10;99.90
15676;DHT22;7938;47.666;9.434;2023-05-09T08:28:34;18.20;99.90
15676;DHT22;7938;47.666;9.434;2023-05-09T08:31:01;18.10;99.90
15676;DHT22;7938;47.666;9.434;2023-05-09T08:33:28;18.30;99.90
15676;DHT22;7938;47.666;9.434;2023-05-09T08:35:56;18.60;99.90
15676;DHT22;7938;47.666;9.434;2023-05-09T08:38:23;18.60;99.90
15676;DHT22;7938;47.666;9.434;2023-05-09T08:40:50;18.80;99.90
15676;DHT22;7938;47.666;9.434;2023-05-09T08:43:20;18.90;99.90
15676;DHT22;7938;47.666;9.434;2023-05-09T08:45:51;18.90;99.90
15676;DHT22;7938;47.666;9.434;2023-05-09T08:48:20;18.70;99.90
15676;DHT22;7938;47.666;9.434;2023-05-09T08:50:48;19.10;99.90
15676;DHT22;7938;47.666;9.434;2023-05-09T08:53:16;19.30;99.90
15676;DHT22;7938;47.666;9.434;2023-05-09T08:55:44;19.20;99.90
15676;DHT22;7938;47.666;9.434;2023-05-09T08:58:12;19.60;99.90
15676;DHT22;7938;47.666;9.434;2023-05-09T09:00:40;19.80;99.90
15676;DHT22;7938;47.666;9.434;2023-05-09T09:03:07;19.80;99.90
15676;DHT22;7938;47.666;9.434;2023-05-09T09:05:36;19.40;99.90
15676;DHT22;7938;47.666;9.434;2023-05-09T09:08:05;19.10;99.90
15676;DHT22;7938;47.666;9.434;2023-05-09T09:10:34;19.00;99.90
15676;DHT22;7938;47.666;9.434;2023-05-09T09:13:02;18.90;99.90
15676;DHT22;7938;47.666;9.434;2023-05-09T09:15:34;18.80;99.90
15676;DHT22;7938;47.666;9.434;2023-05-09T09:18:05;18.50;99.90
15676;DHT22;7938;47.666;9.434;2023-05-09T09:20:34;18.50;99.90
15676;DHT22;7938;47.666;9.434;2023-05-09T09:23:03;18.50;99.90
15676;DHT22;7938;47.666;9.434;2023-05-09T09:25:36;18.60;99.90
15676;DHT22;7938;47.666;9.434;2023-05-09T09:28:03;18.70;99.90
15676;DHT22;7938;47.666;9.434;2023-05-09T09:30:30;18.70;99.90
15676;DHT22;7938;47.666;9.434;2023-05-09T09:32:57;18.70;99.90
15676;DHT22;7938;47.666;9.434;2023-05-09T09:35:24;18.70;99.90
15676;DHT22;7938;47.666;9.434;2023-05-09T09:37:55;18.70;99.90
15676;DHT22;7938;47.666;9.434;2023-05-09T09:40:23;18.60;99.90
15676;DHT22;7938;47.666;9.434;2023-05-09T09:42:52;18.60;99.90
15676;DHT22;7938;47.666;9.434;2023-05-09T09:45:19;18.50;99.90
15676;DHT22;7938;47.666;9.434;2023-05-09T09:47:47;18.50;99.90
15676;DHT22;7938;47.666;9.434;2023-05-09T09:50:16;18.40;99.90
15676;DHT22;7938;47.666;9.434;2023-05-09T09:52:47;18.40;99.90
15676;DHT22;7938;47.666;9.434;2023-05-09T09:55:15;18.50;99.90
15676;DHT22;7938;47.666;9.434;2023-05-09T09:57:42;18.60;99.90
15676;DHT22;7938;47.666;9.434;2023-05-09T10:00:12;18.50;99.90
15676;DHT22;7938;47.666;9.434;2023-05-09T10:02:47;18.60;99.90
15676;DHT22;7938;47.666;9.434;2023-05-09T10:05:18;18.90;99.90
15676;DHT22;7938;47.666;9.434;2023-05-09T10:07:49;19.00;99.90
15676;DHT22;7938;47.666;9.434;2023-05-09T10:10:17;19.10;99.90
15676;DHT22;7938;47.666;9.434;2023-05-09T10:12:45;19.10;99.90
15676;DHT22;7938;47.666;9.434;2023-05-09T10:15:16;19.20;99.90
15676;DHT22;7938;47.666;9.434;2023-05-09T10:17:44;19.50;99.90
15676;DHT22;7938;47.666;9.434;2023-05-09T10:20:11;19.40;99.90
15676;DHT22;7938;47.666;9.434;2023-05-09T10:22:39;19.30;99.90
15676;DHT22;7938;47.666;9.434;2023-05-09T10:25:14;19.30;99.90
15676;DHT22;7938;47.666;9.434;2023-05-09T10:27:45;19.60;99.90
15676;DHT22;7938;47.666;9.434;2023-05-09T10:30:16;19.60;99.90
15676;DHT22;7938;47.666;9.434;2023-05-09T10:32:48;19.60;99.90
15676;DHT22;7938;47.666;9.434;2023-05-09T10:35:18;19.10;99.90
15676;DHT22;7938;47.666;9.434;2023-05-09T10:37:46;19.50;99.90
15676;DHT22;7938;47.666;9.434;2023-05-09T10:40:14;19.50;99.90
15676;DHT22;7938;47.666;9.434;2023-05-09T10:42:41;19.60;99.90
15676;DHT22;7938;47.666;9.434;2023-05-09T10:45:10;19.70;99.90
15676;DHT22;7938;47.666;9.434;2023-05-09T10:47:38;19.70;99.90
15676;DHT22;7938;47.666;9.434;2023-05-09T10:50:06;19.80;99.90
15676;DHT22;7938;47.666;9.434;2023-05-09T10:52:34;19.70;99.90
15676;DHT22;7938;47.666;9.434;2023-05-09T10:55:02;19.60;99.90
15676;DHT22;7938;47.666;9.434;2023-05-09T10:57:30;19.50;99.90
15676;DHT22;7938;47.666;9.434;2023-05-09T10:59:58;19.60;99.90
15676;DHT22;7938;47.666;9.434;2023-05-09T11:02:25;19.60;99.90
15676;DHT22;7938;47.666;9.434;2023-05-09T11:05:15;20.00;99.90
15676;DHT22;7938;47.666;9.434;2023-05-09T11:07:43;20.10;99.90
15676;DHT22;7938;47.666;9.434;2023-05-09T11:10:14;20.20;99.90
15676;DHT22;7938;47.666;9.434;2023-05-09T11:12:55;20.20;99.90
15676;DHT22;7938;47.666;9.434;2023-05-09T11:15:23;20.20;99.90
15676;DHT22;7938;47.666;9.434;2023-05-09T11:18:04;20.10;99.90
15676;DHT22;7938;47.666;9.434;2023-05-09T11:20:34;20.20;99.90
15676;DHT22;7938;47.666;9.434;2023-05-09T11:23:03;20.20;99.90
15676;DHT22;7938;47.666;9.434;2023-05-09T11:25:31;20.00;99.90
15676;DHT22;7938;47.666;9.434;2023-05-09T11:28:00;20.10;99.90
15676;DHT22;7938;47.666;9.434;2023-05-09T11:30:38;20.30;99.90
15676;DHT22;7938;47.666;9.434;2023-05-09T11:33:20;20.30;99.90
15676;DHT22;7938;47.666;9.434;2023-05-09T11:36:15;20.30;99.90
15676;DHT22;7938;47.666;9.434;2023-05-09T11:38:43;20.50;99.90
15676;DHT22;7938;47.666;9.434;2023-05-09T11:41:11;20.50;99.90
15676;DHT22;7938;47.666;9.434;2023-05-09T11:43:38;20.80;99.90
15676;DHT22;7938;47.666;9.434;2023-05-09T11:46:05;20.90;99.90
15676;DHT22;7938;47.666;9.434;2023-05-09T11:48:36;20.90;99.90
15676;DHT22;7938;47.666;9.434;2023-05-09T11:51:05;21.00;99.90
15676;DHT22;7938;47.666;9.434;2023-05-09T11:53:32;21.10;99.90
15676;DHT22;7938;47.666;9.434;2023-05-09T11:56:01;21.30;99.90
15676;DHT22;7938;47.666;9.434;2023-05-09T11:58:29;21.00;99.90
15676;DHT22;7938;47.666;9.434;2023-05-09T12:00:56;21.10;99.90
15676;DHT22;7938;47.666;9.434;2023-05-09T12:03:23;21.10;99.90
15676;DHT22;7938;47.666;9.434;2023-05-09T12:05:50;21.20;99.90
15676;DHT22;7938;47.666;9.434;2023-05-09T12:08:19;21.20;99.90
15676;DHT22;7938;47.666;9.434;2023-05-09T12:10:47;21.30;99.90
15676;DHT22;7938;47.666;9.434;2023-05-09T12:13:14;21.20;99.90
15676;DHT22;7938;47.666;9.434;2023-05-09T12:15:41;21.30;99.90
15676;DHT22;7938;47.666;9.434;2023-05-09T12:18:08;21.50;99.90
15676;DHT22;7938;47.666;9.434;2023-05-09T12:20:42;22.00;99.80
15676;DHT22;7938;47.666;9.434;2023-05-09T12:23:10;21.90;99.90
15676;DHT22;7938;47.666;9.434;2023-05-09T12:25:46;22.10;99.90
15676;DHT22;7938;47.666;9.434;2023-05-09T12:28:14;22.10;98.50
15676;DHT22;7938;47.666;9.434;2023-05-09T12:30:42;21.90;99.10
15676;DHT22;7938;47.666;9.434;2023-05-09T12:33:09;21.90;99.90
15676;DHT22;7938;47.666;9.434;2023-05-09T12:35:37;22.00;99.90
15676;DHT22;7938;47.666;9.434;2023-05-09T12:38:04;22.30;98.10
15676;DHT22;7938;47.666;9.434;2023-05-09T12:40:31;22.50;98.50
15676;DHT22;7938;47.666;9.434;2023-05-09T12:42:59;22.50;98.60
15676;DHT22;7938;47.666;9.434;2023-05-09T12:45:27;22.50;97.60
15676;DHT22;7938;47.666;9.434;2023-05-09T12:47:56;22.60;97.80
15676;DHT22;7938;47.666;9.434;2023-05-09T12:50:30;22.80;97.40
15676;DHT22;7938;47.666;9.434;2023-05-09T12:53:01;22.80;97.30
15676;DHT22;7938;47.666;9.434;2023-05-09T12:55:29;23.00;98.10
15676;DHT22;7938;47.666;9.434;2023-05-09T12:57:59;22.70;98.60
15676;DHT22;7938;47.666;9.434;2023-05-09T13:00:27;23.00;96.70
15676;DHT22;7938;47.666;9.434;2023-05-09T13:02:54;23.00;96.90
15676;DHT22;7938;47.666;9.434;2023-05-09T13:05:22;23.20;97.20
15676;DHT22;7938;47.666;9.434;2023-05-09T13:07:50;23.20;98.50
15676;DHT22;7938;47.666;9.434;2023-05-09T13:10:19;23.20;96.50
15676;DHT22;7938;47.666;9.434;2023-05-09T13:12:47;23.50;96.30
15676;DHT22;7938;47.666;9.434;2023-05-09T13:15:16;23.80;95.20
15676;DHT22;7938;47.666;9.434;2023-05-09T13:17:45;23.90;96.70
15676;DHT22;7938;47.666;9.434;2023-05-09T13:20:12;23.80;96.80
15676;DHT22;7938;47.666;9.434;2023-05-09T13:22:39;23.60;97.00
15676;DHT22;7938;47.666;9.434;2023-05-09T13:25:06;23.60;96.60
15676;DHT22;7938;47.666;9.434;2023-05-09T13:27:33;23.70;96.00
15676;DHT22;7938;47.666;9.434;2023-05-09T13:30:00;23.90;96.10
15676;DHT22;7938;47.666;9.434;2023-05-09T13:32:29;23.80;95.60
15676;DHT22;7938;47.666;9.434;2023-05-09T13:34:56;23.70;96.70
15676;DHT22;7938;47.666;9.434;2023-05-09T13:37:23;23.80;97.60
15676;DHT22;7938;47.666;9.434;2023-05-09T13:39:51;23.90;95.90
15676;DHT22;7938;47.666;9.434;2023-05-09T13:42:19;23.90;96.00
15676;DHT22;7938;47.666;9.434;2023-05-09T13:44:46;24.10;97.40
15676;DHT22;7938;47.666;9.434;2023-05-09T13:47:12;23.80;96.50
15676;DHT22;7938;47.666;9.434;2023-05-09T13:49:41;23.80;96.50
15676;DHT22;7938;47.666;9.434;2023-05-09T13:52:07;24.10;95.70
15676;DHT22;7938;47.666;9.434;2023-05-09T13:54:34;24.10;94.60
15676;DHT22;7938;47.666;9.434;2023-05-09T13:57:02;24.10;95.30
15676;DHT22;7938;47.666;9.434;2023-05-09T13:59:29;24.10;94.90
15676;DHT22;7938;47.666;9.434;2023-05-09T14:01:57;24.10;95.10
15676;DHT22;7938;47.666;9.434;2023-05-09T14:04:24;24.30;95.20
15676;DHT22;7938;47.666;9.434;2023-05-09T14:06:53;24.40;95.10
15676;DHT22;7938;47.666;9.434;2023-05-09T14:09:20;24.90;94.90
15676;DHT22;7938;47.666;9.434;2023-05-09T14:11:47;24.70;95.20
15676;DHT22;7938;47.666;9.434;2023-05-09T14:14:16;24.40;95.80
15676;DHT22;7938;47.666;9.434;2023-05-09T14:16:43;24.50;95.60
15676;DHT22;7938;47.666;9.434;2023-05-09T14:19:10;24.90;94.30
15676;DHT22;7938;47.666;9.434;2023-05-09T14:21:36;25.20;93.90
15676;DHT22;7938;47.666;9.434;2023-05-09T14:24:06;25.10;94.80
15676;DHT22;7938;47.666;9.434;2023-05-09T14:26:33;25.20;95.10
15676;DHT22;7938;47.666;9.434;2023-05-09T14:29:00;25.30;94.30
15676;DHT22;7938;47.666;9.434;2023-05-09T14:31:27;25.20;95.10
15676;DHT22;7938;47.666;9.434;2023-05-09T14:33:54;25.40;95.00
15676;DHT22;7938;47.666;9.434;2023-05-09T14:36:21;25.30;95.00
15676;DHT22;7938;47.666;9.434;2023-05-09T14:38:48;25.10;95.20
15676;DHT22;7938;47.666;9.434;2023-05-09T14:41:16;25.10;95.20
15676;DHT22;7938;47.666;9.434;2023-05-09T14:43:43;25.20;95.00
15676;DHT22;7938;47.666;9.434;2023-05-09T14:46:10;25.30;94.90
15676;DHT22;7938;47.666;9.434;2023-05-09T14:48:37;25.50;93.80
15676;DHT22;7938;47.666;9.434;2023-05-09T14:51:04;25.90;93.90
15676;DHT22;7938;47.666;9.434;2023-05-09T14:53:31;25.80;93.80
15676;DHT22;7938;47.666;9.434;2023-05-09T14:56:00;25.60;93.00
15676;DHT22;7938;47.666;9.434;2023-05-09T14:58:28;25.70;92.90
15676;DHT22;7938;47.666;9.434;2023-05-09T15:00:58;25.20;93.50
15676;DHT22;7938;47.666;9.434;2023-05-09T15:03:25;25.50;92.70
15676;DHT22;7938;47.666;9.434;2023-05-09T15:05:52;24.80;93.60
15676;DHT22;7938;47.666;9.434;2023-05-09T15:08:19;24.70;94.10
15676;DHT22;7938;47.666;9.434;2023-05-09T15:10:46;24.70;94.30
15676;DHT22;7938;47.666;9.434;2023-05-09T15:13:15;24.90;93.30
15676;DHT22;7938;47.666;9.434;2023-05-09T15:15:43;24.60;93.40
15676;DHT22;7938;47.666;9.434;2023-05-09T15:18:10;24.20;93.70
15676;DHT22;7938;47.666;9.434;2023-05-09T15:20:38;23.90;93.70
15676;DHT22;7938;47.666;9.434;2023-05-09T15:23:05;23.80;93.70
15676;DHT22;7938;47.666;9.434;2023-05-09T15:25:32;23.80;94.50
15676;DHT22;7938;47.666;9.434;2023-05-09T15:27:59;23.70;94.20
15676;DHT22;7938;47.666;9.434;2023-05-09T15:30:26;23.60;93.10
15676;DHT22;7938;47.666;9.434;2023-05-09T15:32:55;23.60;93.40
15676;DHT22;7938;47.666;9.434;2023-05-09T15:35:21;23.50;94.30
15676;DHT22;7938;47.666;9.434;2023-05-09T15:37:48;23.20;94.90
15676;DHT22;7938;47.666;9.434;2023-05-09T15:40:15;22.90;95.00
15676;DHT22;7938;47.666;9.434;2023-05-09T15:42:42;22.70;95.10
15676;DHT22;7938;47.666;9.434;2023-05-09T15:45:10;22.60;95.10
15676;DHT22;7938;47.666;9.434;2023-05-09T15:47:36;22.50;95.40
15676;DHT22;7938;47.666;9.434;2023-05-09T15:50:06;22.50;95.70
15676;DHT22;7938;47.666;9.434;2023-05-09T15:52:33;22.30;96.00
15676;DHT22;7938;47.666;9.434;2023-05-09T15:55:00;22.20;96.70
15676;DHT22;7938;47.666;9.434;2023-05-09T15:57:27;22.10;96.90
15676;DHT22;7938;47.666;9.434;2023-05-09T15:59:54;22.00;96.90
15676;DHT22;7938;47.666;9.434;2023-05-09T16:02:21;21.90;96.80
15676;DHT22;7938;47.666;9.434;2023-05-09T16:04:48;21.90;97.20
15676;DHT22;7938;47.666;9.434;2023-05-09T16:07:16;22.00;96.90
15676;DHT22;7938;47.666;9.434;2023-05-09T16:09:45;21.90;96.60
15676;DHT22;7938;47.666;9.434;2023-05-09T16:12:11;21.50;96.80
15676;DHT22;7938;47.666;9.434;2023-05-09T16:14:39;21.50;97.90
15676;DHT22;7938;47.666;9.434;2023-05-09T16:17:06;21.30;97.80
15676;DHT22;7938;47.666;9.434;2023-05-09T16:19:32;21.30;96.90
15676;DHT22;7938;47.666;9.434;2023-05-09T16:22:00;21.20;97.20
15676;DHT22;7938;47.666;9.434;2023-05-09T16:24:28;21.10;97.00
15676;DHT22;7938;47.666;9.434;2023-05-09T16:26:56;20.80;97.40
15676;DHT22;7938;47.666;9.434;2023-05-09T16:29:23;20.10;97.60
15676;DHT22;7938;47.666;9.434;2023-05-09T16:31:51;19.50;98.70
15676;DHT22;7938;47.666;9.434;2023-05-09T16:34:18;19.30;99.40
15676;DHT22;7938;47.666;9.434;2023-05-09T16:36:45;19.20;99.90
15676;DHT22;7938;47.666;9.434;2023-05-09T16:39:12;19.10;99.90
15676;DHT22;7938;47.666;9.434;2023-05-09T16:41:41;19.10;99.90
15676;DHT22;7938;47.666;9.434;2023-05-09T16:44:07;19.00;99.90
15676;DHT22;7938;47.666;9.434;2023-05-09T16:46:34;19.30;99.90
15676;DHT22;7938;47.666;9.434;2023-05-09T16:49:01;19.40;99.90
15676;DHT22;7938;47.666;9.434;2023-05-09T16:51:28;19.60;99.90
15676;DHT22;7938;47.666;9.434;2023-05-09T16:53:55;19.60;99.80
15676;DHT22;7938;47.666;9.434;2023-05-09T16:56:23;19.60;99.90
15676;DHT22;7938;47.666;9.434;2023-05-09T16:58:51;19.60;99.90
15676;DHT22;7938;47.666;9.434;2023-05-09T17:01:18;19.60;99.90
15676;DHT22;7938;47.666;9.434;2023-05-09T17:03:44;19.60;99.90
15676;DHT22;7938;47.666;9.434;2023-05-09T17:06:12;19.40;99.90
15676;DHT22;7938;47.666;9.434;2023-05-09T17:08:39;19.20;99.90
15676;DHT22;7938;47.666;9.434;2023-05-09T17:11:07;18.70;99.90
15676;DHT22;7938;47.666;9.434;2023-05-09T17:13:34;18.50;99.90
15676;DHT22;7938;47.666;9.434;2023-05-09T17:16:03;17.90;99.90
15676;DHT22;7938;47.666;9.434;2023-05-09T17:18:30;17.00;99.90
15676;DHT22;7938;47.666;9.434;2023-05-09T17:20:56;16.00;99.90
15676;DHT22;7938;47.666;9.434;2023-05-09T17:23:23;15.90;99.90
15676;DHT22;7938;47.666;9.434;2023-05-09T17:25:50;15.70;99.90
15676;DHT22;7938;47.666;9.434;2023-05-09T17:28:17;15.30;99.90
15676;DHT22;7938;47.666;9.434;2023-05-09T17:30:44;15.10;99.90
15676;DHT22;7938;47.666;9.434;2023-05-09T17:33:12;15.10;99.90
15676;DHT22;7938;47.666;9.434;2023-05-09T17:35:39;15.10;99.90
15676;DHT22;7938;47.666;9.434;2023-05-09T17:38:06;15.10;99.90
15676;DHT22;7938;47.666;9.434;2023-05-09T17:40:33;15.00;99.90
15676;DHT22;7938;47.666;9.434;2023-05-09T17:43:00;15.10;99.90
15676;DHT22;7938;47.666;9.434;2023-05-09T17:45:27;15.10;99.90
15676;DHT22;7938;47.666;9.434;2023-05-09T17:47:54;15.20;99.90
15676;DHT22;7938;47.666;9.434;2023-05-09T17:50:22;15.10;99.90
15676;DHT22;7938;47.666;9.434;2023-05-09T17:52:49;15.10;99.90
15676;DHT22;7938;47.666;9.434;2023-05-09T17:55:19;15.00;99.90
15676;DHT22;7938;47.666;9.434;2023-05-09T17:57:48;15.00;99.90
15676;DHT22;7938;47.666;9.434;2023-05-09T18:00:17;15.00;99.90
15676;DHT22;7938;47.666;9.434;2023-05-09T18:02:44;14.80;99.90
15676;DHT22;7938;47.666;9.434;2023-05-09T18:05:12;14.80;99.90
15676;DHT22;7938;47.666;9.434;2023-05-09T18:07:41;14.70;99.90
15676;DHT22;7938;47.666;9.434;2023-05-09T18:10:11;14.70;99.90
15676;DHT22;7938;47.666;9.434;2023-05-09T18:12:40;14.60;99.90
15676;DHT22;7938;47.666;9.434;2023-05-09T18:15:10;14.60;99.90
15676;DHT22;7938;47.666;9.434;2023-05-09T18:17:39;14.50;99.90
15676;DHT22;7938;47.666;9.434;2023-05-09T18:20:07;14.40;99.90
15676;DHT22;7938;47.666;9.434;2023-05-09T18:22:34;14.40;99.90
15676;DHT22;7938;47.666;9.434;2023-05-09T18:25:03;14.40;99.90
15676;DHT22;7938;47.666;9.434;2023-05-09T18:27:30;14.40;99.90
15676;DHT22;7938;47.666;9.434;2023-05-09T18:29:57;14.40;99.90
15676;DHT22;7938;47.666;9.434;2023-05-09T18:32:25;14.30;99.90
15676;DHT22;7938;47.666;9.434;2023-05-09T18:34:52;14.20;99.90
15676;DHT22;7938;47.666;9.434;2023-05-09T18:37:19;14.20;99.90
15676;DHT22;7938;47.666;9.434;2023-05-09T18:39:47;14.10;99.90
15676;DHT22;7938;47.666;9.434;2023-05-09T18:42:15;14.10;99.90
15676;DHT22;7938;47.666;9.434;2023-05-09T18:44:42;14.00;99.90
15676;DHT22;7938;47.666;9.434;2023-05-09T18:47:09;14.00;99.90
15676;DHT22;7938;47.666;9.434;2023-05-09T18:49:36;14.00;99.90
15676;DHT22;7938;47.666;9.434;2023-05-09T18:52:03;13.90;99.90
15676;DHT22;7938;47.666;9.434;2023-05-09T18:54:31;13.90;99.90
15676;DHT22;7938;47.666;9.434;2023-05-09T18:56:58;13.90;99.90
15676;DHT22;7938;47.666;9.434;2023-05-09T18:59:26;13.90;99.90
15676;DHT22;7938;47.666;9.434;2023-05-09T19:01:53;13.80;99.90
15676;DHT22;7938;47.666;9.434;2023-05-09T19:04:21;13.90;99.90
15676;DHT22;7938;47.666;9.434;2023-05-09T19:06:48;13.90;99.90
15676;DHT22;7938;47.666;9.434;2023-05-09T19:09:15;13.90;99.90
15676;DHT22;7938;47.666;9.434;2023-05-09T19:11:42;14.00;99.90
15676;DHT22;7938;47.666;9.434;2023-05-09T19:14:09;13.90;99.90
15676;DHT22;7938;47.666;9.434;2023-05-09T19:16:38;13.90;99.90
15676;DHT22;7938;47.666;9.434;2023-05-09T19:19:05;13.90;99.90
15676;DHT22;7938;47.666;9.434;2023-05-09T19:21:32;13.80;99.90
15676;DHT22;7938;47.666;9.434;2023-05-09T19:24:00;13.80;99.90
15676;DHT22;7938;47.666;9.434;2023-05-09T19:26:27;13.80;99.90
15676;DHT22;7938;47.666;9.434;2023-05-09T19:28:54;13.70;99.90
15676;DHT22;7938;47.666;9.434;2023-05-09T19:31:21;13.80;99.90
15676;DHT22;7938;47.666;9.434;2023-05-09T19:33:51;13.80;99.90
15676;DHT22;7938;47.666;9.434;2023-05-09T19:36:17;13.80;99.90
15676;DHT22;7938;47.666;9.434;2023-05-09T19:38:44;13.80;99.90
15676;DHT22;7938;47.666;9.434;2023-05-09T19:41:11;13.80;99.90
15676;DHT22;7938;47.666;9.434;2023-05-09T19:43:39;13.90;99.90
15676;DHT22;7938;47.666;9.434;2023-05-09T19:46:06;13.80;99.90
15676;DHT22;7938;47.666;9.434;2023-05-09T19:51:03;13.90;99.90